地図

経路データ

SID SEASON NUMBER BASIN SUBBASIN NAME ISO_TIME NATURE LAT LON WMO_WIND WMO_PRES WMO_AGENCY TRACK_TYPE DIST2LAND LANDFALL IFLAG USA_AGENCY USA_ATCF_ID USA_LAT USA_LON USA_RECORD USA_STATUS USA_WIND USA_PRES USA_SSHS USA_R34_NE USA_R34_SE USA_R34_SW USA_R34_NW USA_R50_NE USA_R50_SE USA_R50_SW USA_R50_NW USA_R64_NE USA_R64_SE USA_R64_SW USA_R64_NW USA_POCI USA_ROCI USA_RMW USA_EYE TOKYO_LAT TOKYO_LON TOKYO_GRADE TOKYO_WIND TOKYO_PRES TOKYO_R50_DIR TOKYO_R50_LONG TOKYO_R50_SHORT TOKYO_R30_DIR TOKYO_R30_LONG TOKYO_R30_SHORT TOKYO_LAND CMA_LAT CMA_LON CMA_CAT CMA_WIND CMA_PRES HKO_LAT HKO_LON HKO_CAT HKO_WIND HKO_PRES NEWDELHI_LAT NEWDELHI_LON NEWDELHI_GRADE NEWDELHI_WIND NEWDELHI_PRES NEWDELHI_CI NEWDELHI_DP NEWDELHI_POCI REUNION_LAT REUNION_LON REUNION_TYPE REUNION_WIND REUNION_PRES REUNION_TNUM REUNION_CI REUNION_RMW REUNION_R34_NE REUNION_R34_SE REUNION_R34_SW REUNION_R34_NW REUNION_R50_NE REUNION_R50_SE REUNION_R50_SW REUNION_R50_NW REUNION_R64_NE REUNION_R64_SE REUNION_R64_SW REUNION_R64_NW BOM_LAT BOM_LON BOM_TYPE BOM_WIND BOM_PRES BOM_TNUM BOM_CI BOM_RMW BOM_R34_NE BOM_R34_SE BOM_R34_SW BOM_R34_NW BOM_R50_NE BOM_R50_SE BOM_R50_SW BOM_R50_NW BOM_R64_NE BOM_R64_SE BOM_R64_SW BOM_R64_NW BOM_ROCI BOM_POCI BOM_EYE BOM_POS_METHOD BOM_PRES_METHOD NADI_LAT NADI_LON NADI_CAT NADI_WIND NADI_PRES WELLINGTON_LAT WELLINGTON_LON WELLINGTON_WIND WELLINGTON_PRES DS824_LAT DS824_LON DS824_STAGE DS824_WIND DS824_PRES TD9636_LAT TD9636_LON TD9636_STAGE TD9636_WIND TD9636_PRES TD9635_LAT TD9635_LON TD9635_WIND TD9635_PRES TD9635_ROCI NEUMANN_LAT NEUMANN_LON NEUMANN_CLASS NEUMANN_WIND NEUMANN_PRES MLC_LAT MLC_LON MLC_CLASS MLC_WIND MLC_PRES USA_GUST BOM_GUST BOM_GUST_PER REUNION_GUST REUNION_GUST_PER USA_SEAHGT USA_SEARAD_NE USA_SEARAD_SE USA_SEARAD_SW USA_SEARAD_NW STORM_SPEED STORM_DIR
1907086N07150 1907 18 WP MM NOT_NAMED 1907-03-26 16:00:00 NR 7.00000 150.000 main 1059 1048 __________O___ -1 7.00000 150.000 4 11 273
1907086N07150 1907 18 WP MM NOT_NAMED 1907-03-26 18:00:00 NR 7.01822 149.639 main 1048 1037 __________P___ -1 7.01822 149.639 4 11 273
1907086N07150 1907 18 WP MM NOT_NAMED 1907-03-26 21:00:00 NR 7.04468 149.107 main 1037 1035 __________P___ -1 7.04468 149.107 4 10 273
1907086N07150 1907 18 WP MM NOT_NAMED 1907-03-27 00:00:00 NR 7.06968 148.603 main 1039 1033 __________P___ -1 7.06968 148.603 4 10 273
1907086N07150 1907 18 WP MM NOT_NAMED 1907-03-27 03:00:00 NR 7.09278 148.141 main 1033 1033 __________P___ -1 7.09278 148.141 4 9 273
1907086N07150 1907 18 WP MM NOT_NAMED 1907-03-27 04:00:00 NR 7.10000 148.000 main 1033 1031 __________O___ -1 7.10000 148.000 4 8 273
1907086N07150 1907 18 WP MM NOT_NAMED 1907-03-27 06:00:00 NR 7.11381 147.738 main 1031 1030 __________P___ -1 7.11381 147.738 4 7 273
1907086N07150 1907 18 WP MM NOT_NAMED 1907-03-27 09:00:00 NR 7.13465 147.382 main 1030 1030 __________P___ -1 7.13465 147.382 4 7 274
1907086N07150 1907 18 WP MM NOT_NAMED 1907-03-27 12:00:00 NR 7.15842 147.050 main 1042 1042 __________P___ -1 7.15842 147.050 4 7 275
1907086N07150 1907 18 WP MM NOT_NAMED 1907-03-27 15:00:00 NR 7.18821 146.716 main 1042 1042 __________P___ -1 7.18821 146.716 4 7 275
1907086N07150 1907 18 WP MM NOT_NAMED 1907-03-27 16:00:00 NR 7.20000 146.600 main 1042 1042 __________O___ -1 7.20000 146.600 4 8 276
1907086N07150 1907 18 WP MM NOT_NAMED 1907-03-27 18:00:00 NR 7.22762 146.340 main 1042 1042 __________P___ -1 7.22762 146.340 4 8 277
1907086N07150 1907 18 WP MM NOT_NAMED 1907-03-27 21:00:00 NR 7.27538 145.936 main 1056 1056 __________P___ -1 7.27538 145.936 4 8 277
1907086N07150 1907 18 WP MM NOT_NAMED 1907-03-28 00:00:00 NR 7.32791 145.528 main 1060 1060 __________P___ -1 7.32791 145.528 4 8 278
1907086N07150 1907 18 WP MM NOT_NAMED 1907-03-28 03:00:00 NR 7.38210 145.129 main 1077 1077 __________P___ -1 7.38210 145.129 4 8 278
1907086N07150 1907 18 WP MM NOT_NAMED 1907-03-28 04:00:00 NR 7.40000 145.000 main 1079 1079 __________O___ -1 7.40000 145.000 4 7 277
1907086N07150 1907 18 WP MM NOT_NAMED 1907-03-28 06:00:00 NR 7.42795 144.760 main 1083 1085 __________P___ -1 7.42795 144.760 4 7 277
1907086N07150 1907 18 WP MM NOT_NAMED 1907-03-28 09:00:00 NR 7.46985 144.414 main 1103 1103 __________P___ -1 7.46985 144.414 4 7 277
1907086N07150 1907 18 WP MM NOT_NAMED 1907-03-28 12:00:00 NR 7.51730 144.071 main 1111 1111 __________P___ -1 7.51730 144.071 4 7 279
1907086N07150 1907 18 WP MM NOT_NAMED 1907-03-28 15:00:00 NR 7.57655 143.721 main 1133 1133 __________P___ -1 7.57655 143.721 4 7 280
1907086N07150 1907 18 WP MM NOT_NAMED 1907-03-28 16:00:00 NR 7.60000 143.600 main 1136 1136 __________O___ -1 7.60000 143.600 4 8 280
1907086N07150 1907 18 WP MM NOT_NAMED 1907-03-28 18:00:00 NR 7.63947 143.345 main 1147 1147 __________P___ -1 7.63947 143.345 4 8 280
1907086N07150 1907 18 WP MM NOT_NAMED 1907-03-28 21:00:00 NR 7.71098 142.949 main 1162 1155 __________P___ -1 7.71098 142.949 4 8 282
1907086N07150 1907 18 WP MM NOT_NAMED 1907-03-29 00:00:00 NR 7.80833 142.544 main 1155 1149 __________P___ -1 7.80833 142.544 4 8 286
1907086N07150 1907 18 WP MM NOT_NAMED 1907-03-29 03:00:00 NR 7.94406 142.136 main 1149 1155 __________P___ -1 7.94406 142.136 4 9 290
1907086N07150 1907 18 WP MM NOT_NAMED 1907-03-29 04:00:00 NR 8.00000 142.000 main 1155 1151 __________O___ -1 8.00000 142.000 4 9 294
1907086N07150 1907 18 WP MM NOT_NAMED 1907-03-29 06:00:00 NR 8.12450 141.728 main 1154 1154 __________P___ -1 8.12450 141.728 4 9 297
1907086N07150 1907 18 WP MM NOT_NAMED 1907-03-29 09:00:00 NR 8.34896 141.320 main 1161 1168 __________P___ -1 8.34896 141.320 4 9 301
1907086N07150 1907 18 WP MM NOT_NAMED 1907-03-29 12:00:00 NR 8.61032 140.917 main 1181 1181 __________P___ -1 8.61032 140.917 4 10 305
1907086N07150 1907 18 WP MM NOT_NAMED 1907-03-29 15:00:00 NR 8.89921 140.527 main 1200 1200 __________P___ -1 8.89921 140.527 4 10 307
1907086N07150 1907 18 WP MM NOT_NAMED 1907-03-29 16:00:00 NR 9.00000 140.400 main 1206 1206 __________O___ -1 9.00000 140.400 4 10 309
1907086N07150 1907 18 WP MM NOT_NAMED 1907-03-29 18:00:00 NR 9.20211 140.142 main 1213 1213 __________P___ -1 9.20211 140.142 4 10 310
1907086N07150 1907 18 WP MM NOT_NAMED 1907-03-29 21:00:00 NR 9.52434 139.768 main 1232 1228 __________P___ -1 9.52434 139.768 4 10 313
1907086N07150 1907 18 WP MM NOT_NAMED 1907-03-30 00:00:00 NR 9.85826 139.416 main 1260 1256 __________P___ -1 9.85826 139.416 4 9 315
1907086N07150 1907 18 WP MM NOT_NAMED 1907-03-30 03:00:00 NR 10.1913 139.097 main 1281 1278 __________P___ -1 10.1913 139.097 4 9 317
1907086N07150 1907 18 WP MM NOT_NAMED 1907-03-30 04:00:00 NR 10.3000 139.000 main 1288 1288 __________O___ -1 10.3000 139.000 4 8 317
1907086N07150 1907 18 WP MM NOT_NAMED 1907-03-30 06:00:00 NR 10.4977 138.811 main 1303 1303 __________P___ -1 10.4977 138.811 4 8 318
1907086N07150 1907 18 WP MM NOT_NAMED 1907-03-30 09:00:00 NR 10.7880 138.558 main 1330 1327 __________P___ -1 10.7880 138.558 4 7 322
1907086N07150 1907 18 WP MM NOT_NAMED 1907-03-30 12:00:00 NR 11.0816 138.341 main 1339 1331 __________P___ -1 11.0816 138.341 4 7 327
1907086N07150 1907 18 WP MM NOT_NAMED 1907-03-30 15:00:00 NR 11.3911 138.155 main 1335 1325 __________P___ -1 11.3911 138.155 4 7 330
1907086N07150 1907 18 WP MM NOT_NAMED 1907-03-30 16:00:00 NR 11.5000 138.100 main 1327 1319 __________O___ -1 11.5000 138.100 4 7 336
1907086N07150 1907 18 WP MM NOT_NAMED 1907-03-30 18:00:00 NR 11.7280 137.998 main 1321 1315 __________P___ -1 11.7280 137.998 4 8 339
1907086N07150 1907 18 WP MM NOT_NAMED 1907-03-30 21:00:00 NR 12.0917 137.864 main 1319 1307 __________P___ -1 12.0917 137.864 4 8 342
1907086N07150 1907 18 WP MM NOT_NAMED 1907-03-31 00:00:00 NR 12.4744 137.745 main 1307 1300 __________P___ -1 12.4744 137.745 4 8 344
1907086N07150 1907 18 WP MM NOT_NAMED 1907-03-31 03:00:00 NR 12.8679 137.636 main 1301 1301 __________P___ -1 12.8679 137.636 4 8 345
1907086N07150 1907 18 WP MM NOT_NAMED 1907-03-31 04:00:00 NR 13.0000 137.600 main 1303 __________O___ -1 13.0000 137.600 7 8 345

デジタル台風データ・検索

IBTrACS Databaseについて

本データベースは、米国NOAAが公開する1842年以降の世界の熱帯低気圧のベストトラックデータアーカイブInternational Best Track Archive for Climate Stewardship (IBTrACS)を、ウェブで閲覧しやすい形式に変換したものです。

最終更新日:2021-10-19